createdAt,value
2018-06-14T00:01:10.180Z,12.00
2018-06-14T00:03:44.723Z,14.75
2018-06-14T00:06:15.889Z,13.00
2018-06-14T00:08:48.287Z,12.00
2018-06-14T00:11:18.737Z,13.75
2018-06-14T00:13:49.222Z,14.25
2018-06-14T00:16:24.193Z,14.00
2018-06-14T00:18:54.523Z,12.00
2018-06-14T00:21:30.093Z,13.50
2018-06-14T00:24:00.989Z,12.75
2018-06-14T00:26:32.473Z,11.50
2018-06-14T00:29:02.899Z,15.00
2018-06-14T00:31:35.596Z,14.25
2018-06-14T00:34:13.589Z,11.00
2018-06-14T00:36:46.047Z,11.50
2018-06-14T00:39:17.882Z,11.00
2018-06-14T00:41:48.156Z,13.00
2018-06-14T00:44:19.681Z,15.50
2018-06-14T00:46:50.581Z,11.25
2018-06-14T00:49:24.703Z,12.00
2018-06-14T00:51:56.170Z,12.00
2018-06-14T00:54:29.425Z,17.50
2018-06-14T00:57:10.930Z,15.75
2018-06-14T00:59:41.396Z,15.00
2018-06-14T01:02:13.347Z,14.25
2018-06-14T01:04:44.912Z,16.75
2018-06-14T01:07:16.194Z,18.50
2018-06-14T01:09:53.099Z,16.00
2018-06-14T01:12:28.567Z,17.50
2018-06-14T01:15:00.123Z,17.75
2018-06-14T01:17:35.255Z,18.25
2018-06-14T01:20:06.087Z,17.75
2018-06-14T01:22:37.038Z,18.00
2018-06-14T01:28:05.763Z,18.75
2018-06-14T01:30:37.923Z,18.00
2018-06-14T01:33:09.335Z,14.75
2018-06-14T01:35:39.639Z,17.25
2018-06-14T01:38:21.139Z,15.25
2018-06-14T01:40:52.057Z,14.75
2018-06-14T01:43:24.049Z,19.00
2018-06-14T01:45:55.180Z,20.25
2018-06-14T01:48:43.726Z,19.50
2018-06-14T01:51:22.498Z,16.50
2018-06-14T01:53:52.746Z,18.50
2018-06-14T01:56:23.108Z,22.00
2018-06-14T01:58:53.723Z,20.50
2018-06-14T02:01:24.202Z,18.25
2018-06-14T02:03:54.601Z,22.25
2018-06-14T02:06:25.427Z,18.00
2018-06-14T02:08:57.289Z,21.00
2018-06-14T02:11:33.567Z,17.00
2018-06-14T02:17:45.449Z,20.00
2018-06-14T02:22:54.129Z,18.75
2018-06-14T02:25:28.553Z,19.75
2018-06-14T02:28:00.382Z,20.00
2018-06-14T02:30:31.616Z,18.25
2018-06-14T02:33:02.596Z,19.00
2018-06-14T02:35:32.782Z,18.50
2018-06-14T02:38:06.120Z,22.25
2018-06-14T02:40:36.330Z,23.50
2018-06-14T02:43:06.563Z,19.75
2018-06-14T02:45:44.852Z,20.50
2018-06-14T02:48:15.717Z,18.75
2018-06-14T02:50:46.120Z,21.50
2018-06-14T02:53:20.320Z,18.50
2018-06-14T02:55:51.962Z,22.25
2018-06-14T02:58:22.685Z,22.50
2018-06-14T03:00:53.152Z,19.75
2018-06-14T03:03:30.088Z,21.50
2018-06-14T03:06:00.954Z,20.00
2018-06-14T03:08:31.411Z,20.50
2018-06-14T03:11:02.421Z,19.75
2018-06-14T03:13:33.080Z,20.25
2018-06-14T03:16:04.954Z,22.50
2018-06-14T03:18:39.300Z,23.25
2018-06-14T03:21:10.678Z,20.75
2018-06-14T03:23:41.050Z,21.00
2018-06-14T03:26:12.557Z,25.25
2018-06-14T03:28:44.440Z,22.25
2018-06-14T03:31:22.289Z,21.25
2018-06-14T03:33:58.649Z,22.00
2018-06-14T03:36:29.169Z,25.00
2018-06-14T03:38:59.824Z,25.50
2018-06-14T03:41:30.165Z,24.75
2018-06-14T03:44:00.591Z,26.75
2018-06-14T03:46:32.036Z,23.50
2018-06-14T03:49:04.157Z,25.25
2018-06-14T03:51:39.839Z,27.25
2018-06-14T03:54:11.706Z,25.75
2018-06-14T03:56:52.704Z,27.25
2018-06-14T03:59:24.287Z,26.75
2018-06-14T04:02:05.940Z,22.50
2018-06-14T04:04:37.181Z,26.50
2018-06-14T04:07:10.055Z,25.50
2018-06-14T04:09:41.184Z,24.25
2018-06-14T04:12:12.931Z,26.50
2018-06-14T04:14:43.978Z,26.75
2018-06-14T04:17:22.051Z,23.75
2018-06-14T04:19:58.140Z,28.00
2018-06-14T04:22:29.601Z,28.75
2018-06-14T04:25:00.229Z,26.50
2018-06-14T04:27:31.853Z,24.25
2018-06-14T04:30:05.275Z,24.75
2018-06-14T04:32:35.887Z,26.25
2018-06-14T04:35:06.749Z,27.50
2018-06-14T04:37:38.483Z,25.75
2018-06-14T04:40:09.080Z,28.25
2018-06-14T04:42:39.939Z,29.00
2018-06-14T04:45:16.820Z,26.75
2018-06-14T04:47:47.106Z,27.25
2018-06-14T04:50:18.071Z,29.25
2018-06-14T04:52:48.894Z,26.75
2018-06-14T04:55:19.936Z,25.25
2018-06-14T04:57:51.757Z,25.75
2018-06-14T05:00:22.428Z,25.50
2018-06-14T05:02:52.775Z,30.00
2018-06-14T05:05:23.477Z,29.00
2018-06-14T05:07:53.773Z,23.25
2018-06-14T05:10:24.276Z,24.50
2018-06-14T05:12:55.930Z,29.25
2018-06-14T05:15:26.684Z,28.50
2018-06-14T05:17:59.840Z,28.75
2018-06-14T05:20:30.778Z,28.50
2018-06-14T05:23:01.198Z,26.00
2018-06-14T05:25:33.099Z,25.75
2018-06-14T05:28:06.097Z,21.25
2018-06-14T05:30:41.890Z,28.75
2018-06-14T05:33:12.690Z,20.75
2018-06-14T05:35:44.441Z,22.75
2018-06-14T05:38:17.408Z,25.25
2018-06-14T05:40:47.875Z,23.75
2018-06-14T05:43:21.201Z,26.50
2018-06-14T05:45:52.633Z,20.75
2018-06-14T05:48:24.735Z,23.25
2018-06-14T05:50:55.745Z,28.25
2018-06-14T05:53:26.014Z,23.75
2018-06-14T05:56:00.588Z,25.50
2018-06-14T05:58:43.612Z,23.75
2018-06-14T06:01:14.785Z,22.25
2018-06-14T06:03:45.432Z,24.25
2018-06-14T06:06:15.760Z,22.00
2018-06-14T06:08:47.192Z,22.50
2018-06-14T06:11:17.932Z,25.50
2018-06-14T06:13:48.655Z,23.00
2018-06-14T06:16:19.549Z,21.50
2018-06-14T06:18:49.806Z,24.75
2018-06-14T06:21:21.339Z,25.00
2018-06-14T06:23:54.383Z,25.00
2018-06-14T06:26:24.783Z,26.25
2018-06-14T06:28:56.173Z,23.00
2018-06-14T06:31:28.025Z,22.50
2018-06-14T06:33:58.338Z,27.00
2018-06-14T06:36:41.035Z,24.25
2018-06-14T06:39:12.899Z,28.25
2018-06-14T06:41:44.457Z,26.00
2018-06-14T06:44:14.826Z,22.00
2018-06-14T06:46:45.415Z,26.75
2018-06-14T06:51:45.979Z,23.25
2018-06-14T06:54:17.460Z,27.50
2018-06-14T06:56:51.145Z,25.25
2018-06-14T06:59:26.462Z,27.75
2018-06-14T07:04:41.465Z,20.00
2018-06-14T07:07:13.962Z,23.75
2018-06-14T07:09:57.769Z,23.50
2018-06-14T07:12:30.852Z,22.00
2018-06-14T07:15:20.627Z,20.25
2018-06-14T07:17:53.009Z,22.25
2018-06-14T07:20:35.687Z,24.00
2018-06-14T07:23:11.155Z,22.25
2018-06-14T07:25:43.700Z,23.25
2018-06-14T07:28:14.938Z,22.00
2018-06-14T07:31:04.234Z,21.75
2018-06-14T07:33:36.695Z,22.25
2018-06-14T07:36:13.302Z,24.25
2018-06-14T07:38:47.975Z,21.00
2018-06-14T07:41:28.806Z,23.25
2018-06-14T07:44:01.302Z,26.25
2018-06-14T07:46:34.904Z,23.50
2018-06-14T07:49:06.430Z,21.25
2018-06-14T07:51:39.509Z,19.75
2018-06-14T07:54:14.660Z,20.00
2018-06-14T07:56:57.828Z,21.75
2018-06-14T07:59:35.033Z,21.75
2018-06-14T08:02:15.421Z,23.75
2018-06-14T08:04:48.078Z,18.75
2018-06-14T08:07:19.383Z,17.75
2018-06-14T08:09:50.729Z,16.50
2018-06-14T08:12:22.002Z,19.00
2018-06-14T08:14:55.798Z,17.75
2018-06-14T08:17:28.223Z,20.25
2018-06-14T08:20:06.488Z,17.75
2018-06-14T08:22:49.860Z,17.75
2018-06-14T08:25:24.921Z,17.00
2018-06-14T08:27:59.784Z,17.25
2018-06-14T08:30:34.116Z,19.25
2018-06-14T08:33:08.698Z,18.25
2018-06-14T08:35:39.317Z,17.50
2018-06-14T08:38:10.521Z,16.50
2018-06-14T08:40:52.193Z,17.25
2018-06-14T08:43:23.922Z,15.50
2018-06-14T08:45:56.102Z,15.50
2018-06-14T08:48:27.758Z,17.00
2018-06-14T08:51:06.183Z,13.00
2018-06-14T08:53:37.845Z,15.50
2018-06-14T08:56:10.430Z,15.25
2018-06-14T08:58:41.179Z,12.00
2018-06-14T09:01:11.697Z,13.50
2018-06-14T09:03:45.509Z,14.00
2018-06-14T09:06:21.157Z,13.25
2018-06-14T09:09:04.764Z,18.50
2018-06-14T09:11:36.057Z,15.25
2018-06-14T09:14:08.598Z,15.75
2018-06-14T09:16:39.522Z,15.25
2018-06-14T09:19:17.462Z,14.50
2018-06-14T09:21:48.121Z,14.25
2018-06-14T09:24:21.673Z,13.25
2018-06-14T09:26:52.189Z,13.25
2018-06-14T09:29:23.881Z,12.50
2018-06-14T09:31:54.876Z,13.00
2018-06-14T09:34:28.602Z,13.75
2018-06-14T09:37:14.649Z,13.50
2018-06-14T09:39:46.063Z,12.50
2018-06-14T09:42:17.315Z,13.00
2018-06-14T09:44:49.104Z,15.50
2018-06-14T09:47:26.034Z,10.75
2018-06-14T09:52:43.602Z,14.75
2018-06-14T09:55:15.709Z,14.00
2018-06-14T09:57:46.127Z,12.25
2018-06-14T10:00:19.388Z,13.00
2018-06-14T10:02:54.459Z,13.00
2018-06-14T10:05:29.700Z,11.25
2018-06-14T10:10:47.749Z,14.25
2018-06-14T10:13:22.304Z,12.00
2018-06-14T10:16:06.512Z,14.75
2018-06-14T10:18:45.572Z,16.25
2018-06-14T10:21:25.382Z,11.25
2018-06-14T10:23:57.251Z,9.75
2018-06-14T10:26:47.018Z,9.25
2018-06-14T10:29:37.469Z,10.75
2018-06-14T10:32:17.695Z,9.00
2018-06-14T10:34:50.715Z,11.75
2018-06-14T10:37:23.469Z,10.50
2018-06-14T10:39:57.565Z,10.75
2018-06-14T10:42:37.104Z,12.50
2018-06-14T10:45:15.188Z,11.50
2018-06-14T10:47:48.632Z,10.25
2018-06-14T10:50:20.758Z,8.25
2018-06-14T10:52:57.012Z,20.00
2018-06-14T10:55:36.193Z,14.75
2018-06-14T10:58:22.620Z,15.50
2018-06-14T11:00:57.880Z,10.25
2018-06-14T11:03:29.289Z,15.00
2018-06-14T11:06:13.425Z,11.25
2018-06-14T11:08:47.504Z,10.50
2018-06-14T11:11:27.742Z,8.50
2018-06-14T11:14:12.731Z,9.00
2018-06-14T11:16:54.518Z,10.00
2018-06-14T11:19:32.637Z,10.00
2018-06-14T11:22:04.930Z,9.00
2018-06-14T11:24:46.356Z,8.00
2018-06-14T11:27:19.786Z,8.75
2018-06-14T11:29:54.287Z,8.75
2018-06-14T11:35:06.369Z,10.00
2018-06-14T11:37:38.131Z,8.00
2018-06-14T11:40:13.922Z,8.00
2018-06-14T11:42:47.227Z,8.00
2018-06-14T11:45:19.071Z,8.75
2018-06-14T11:47:51.966Z,8.50
2018-06-14T11:50:23.603Z,10.00
2018-06-14T11:52:56.090Z,8.25
2018-06-14T11:55:27.394Z,7.50
2018-06-14T11:57:57.686Z,7.00
2018-06-14T12:03:13.552Z,10.00
2018-06-14T12:05:45.870Z,8.00
2018-06-14T12:08:19.756Z,7.50
2018-06-14T12:10:50.363Z,10.00
2018-06-14T12:13:23.109Z,8.50
2018-06-14T12:15:54.417Z,10.75
2018-06-14T12:18:24.830Z,7.00
2018-06-14T12:20:56.830Z,7.00
2018-06-14T12:23:29.066Z,5.00
2018-06-14T12:26:02.758Z,9.00
2018-06-14T12:28:38.455Z,9.00
2018-06-14T12:31:12.143Z,6.75
2018-06-14T12:33:43.029Z,7.75
2018-06-14T12:36:17.123Z,5.75
2018-06-14T12:38:48.833Z,8.00
2018-06-14T12:41:19.607Z,6.75
2018-06-14T12:43:52.033Z,6.00
2018-06-14T12:49:02.846Z,7.00
2018-06-14T12:51:39.440Z,7.25
2018-06-14T12:54:14.709Z,8.50
2018-06-14T12:56:58.479Z,6.00
2018-06-14T12:59:35.108Z,7.00
2018-06-14T13:02:35.467Z,5.00
2018-06-14T13:05:08.344Z,7.25
2018-06-14T13:07:45.661Z,10.25
2018-06-14T13:10:16.727Z,7.00
2018-06-14T13:12:49.662Z,5.50
2018-06-14T13:18:04.669Z,7.00
2018-06-14T13:20:45.933Z,6.00
2018-06-14T13:23:22.325Z,8.75
2018-06-14T13:25:56.569Z,7.75
2018-06-14T13:28:27.218Z,7.00
2018-06-14T13:30:59.364Z,8.25
2018-06-14T13:33:30.791Z,6.00
2018-06-14T13:36:05.652Z,7.25
2018-06-14T13:38:37.334Z,8.00
2018-06-14T13:41:09.093Z,7.00
2018-06-14T13:43:43.306Z,6.25
2018-06-14T13:46:31.597Z,6.00
2018-06-14T13:49:06.677Z,19.75
2018-06-14T13:54:33.680Z,8.00
2018-06-14T13:57:05.445Z,8.25
2018-06-14T13:59:40.273Z,8.00
2018-06-14T14:02:11.210Z,8.50
2018-06-14T14:04:51.584Z,9.00
2018-06-14T14:07:28.328Z,7.00
2018-06-14T14:10:00.821Z,7.75
2018-06-14T14:12:34.219Z,8.00
2018-06-14T14:15:08.336Z,8.25
2018-06-14T14:17:46.820Z,8.75
2018-06-14T14:20:18.326Z,8.00
2018-06-14T14:22:52.475Z,10.25
2018-06-14T14:25:23.315Z,9.25
2018-06-14T14:27:57.896Z,8.50
2018-06-14T14:30:30.348Z,9.50
2018-06-14T14:33:03.600Z,8.50
2018-06-14T14:35:48.635Z,10.00
2018-06-14T14:38:22.552Z,10.00
2018-06-14T14:40:54.861Z,9.00
2018-06-14T14:43:27.411Z,9.50
2018-06-14T14:46:03.778Z,9.75
2018-06-14T14:48:40.782Z,11.00
2018-06-14T14:51:18.560Z,10.25
2018-06-14T14:54:02.201Z,13.00
2018-06-14T14:56:35.494Z,11.25
2018-06-14T14:59:08.356Z,13.00
2018-06-14T15:01:49.313Z,13.00
2018-06-14T15:04:31.957Z,15.25
2018-06-14T15:07:07.388Z,13.25
2018-06-14T15:09:50.090Z,16.25
2018-06-14T15:12:28.294Z,14.25
2018-06-14T15:15:07.659Z,17.25
2018-06-14T15:20:57.326Z,19.50
2018-06-14T15:23:39.475Z,19.00
2018-06-14T15:26:23.585Z,26.75
2018-06-14T15:29:09.128Z,27.25
2018-06-14T15:31:44.663Z,27.50
2018-06-14T15:34:21.388Z,20.25
2018-06-14T15:36:58.248Z,15.75
2018-06-14T15:39:32.294Z,15.75
2018-06-14T15:42:09.633Z,17.25
2018-06-14T15:44:43.946Z,17.50
2018-06-14T15:47:21.540Z,17.25
2018-06-14T15:49:52.562Z,16.50
2018-06-14T15:52:26.008Z,19.25
2018-06-14T15:55:08.561Z,16.50
2018-06-14T15:57:40.296Z,19.75
2018-06-14T16:00:18.942Z,19.00
2018-06-14T16:02:51.131Z,17.75
2018-06-14T16:05:33.444Z,19.25
2018-06-14T16:11:16.403Z,22.25
2018-06-14T16:13:52.376Z,21.00
2018-06-14T16:19:04.929Z,15.25
2018-06-14T16:21:49.694Z,17.00
2018-06-14T16:24:24.897Z,22.25
2018-06-14T16:26:58.448Z,18.25
2018-06-14T16:29:29.694Z,21.75
2018-06-14T16:32:12.220Z,21.50
2018-06-14T16:34:49.576Z,22.00
2018-06-14T16:37:28.587Z,29.00
2018-06-14T16:40:01.479Z,20.25
2018-06-14T16:42:36.176Z,21.75
2018-06-14T16:45:20.569Z,22.25
2018-06-14T16:47:55.886Z,18.50
2018-06-14T16:50:29.746Z,20.25
2018-06-14T16:53:00.454Z,19.00
2018-06-14T16:58:34.406Z,26.50
2018-06-14T17:01:05.190Z,20.00
2018-06-14T17:03:38.786Z,20.00
2018-06-14T17:06:10.889Z,17.25
2018-06-14T17:08:51.396Z,18.25
2018-06-14T17:11:22.510Z,25.00
2018-06-14T17:13:54.078Z,25.00
2018-06-14T17:16:28.704Z,20.00
2018-06-14T17:19:02.348Z,17.25
2018-06-14T17:21:33.216Z,17.00
2018-06-14T17:24:06.963Z,22.25
2018-06-14T17:26:42.711Z,18.75
2018-06-14T17:29:13.728Z,17.00
2018-06-14T17:31:49.101Z,16.75
2018-06-14T17:34:24.085Z,17.00
2018-06-14T17:36:58.443Z,18.25
2018-06-14T17:39:30.444Z,17.25
2018-06-14T17:42:02.154Z,23.50
2018-06-14T17:44:33.713Z,19.75
2018-06-14T17:47:18.511Z,22.75
2018-06-14T17:49:54.429Z,16.75
2018-06-14T17:52:34.259Z,17.25
2018-06-14T17:55:20.927Z,18.75
2018-06-14T17:58:03.233Z,25.25
2018-06-14T18:00:36.313Z,50.75
2018-06-14T18:03:26.104Z,19.50
2018-06-14T18:06:02.875Z,15.50
2018-06-14T18:08:44.474Z,23.25
2018-06-14T18:11:15.996Z,21.25
2018-06-14T18:13:52.236Z,20.00
2018-06-14T18:16:25.835Z,20.25
2018-06-14T18:19:18.741Z,26.50
2018-06-14T18:21:53.921Z,25.00
2018-06-14T18:24:29.424Z,20.50
2018-06-14T18:27:04.079Z,16.25
2018-06-14T18:29:39.268Z,20.50
2018-06-14T18:32:24.354Z,19.75
2018-06-14T18:35:02.970Z,19.50
2018-06-14T18:37:36.676Z,18.50
2018-06-14T18:40:21.612Z,22.25
2018-06-14T18:42:55.305Z,17.50
2018-06-14T18:45:31.569Z,19.50
2018-06-14T18:48:15.405Z,20.00
2018-06-14T18:53:41.066Z,20.75
2018-06-14T18:56:41.110Z,19.25
2018-06-14T18:59:13.343Z,16.75
2018-06-14T19:01:53.033Z,16.75
2018-06-14T19:04:27.048Z,20.00
2018-06-14T19:07:01.888Z,18.00
2018-06-14T19:09:40.136Z,16.75
2018-06-14T19:12:24.886Z,18.50
2018-06-14T19:15:19.763Z,16.50
2018-06-14T19:17:52.158Z,16.00
2018-06-14T19:20:26.040Z,15.75
2018-06-14T19:23:20.090Z,16.25
2018-06-14T19:25:51.817Z,17.50
2018-06-14T19:28:22.467Z,19.00
2018-06-14T19:30:55.910Z,19.50
2018-06-14T19:33:29.625Z,19.75
2018-06-14T19:36:00.980Z,17.00
2018-06-14T19:38:32.291Z,21.75
2018-06-14T19:41:02.749Z,17.50
2018-06-14T19:43:35.622Z,19.50
2018-06-14T19:46:24.677Z,17.75
2018-06-14T19:48:57.633Z,17.75
2018-06-14T19:51:29.676Z,17.00
2018-06-14T19:54:15.523Z,18.75
2018-06-14T19:56:52.947Z,22.00
2018-06-14T19:59:27.398Z,17.00
2018-06-14T20:02:11.152Z,21.75
2018-06-14T20:04:45.820Z,18.50
2018-06-14T20:07:26.750Z,19.50
2018-06-14T20:09:59.413Z,23.50
2018-06-14T20:12:33.443Z,22.25
2018-06-14T20:15:08.695Z,21.25
2018-06-14T20:17:53.176Z,23.50
2018-06-14T20:20:29.647Z,24.00
2018-06-14T20:23:07.598Z,22.00
2018-06-14T20:25:49.121Z,22.75
2018-06-14T20:28:20.399Z,20.75
2018-06-14T20:30:55.690Z,18.00
2018-06-14T20:33:29.684Z,21.25
2018-06-14T20:36:00.856Z,21.25
2018-06-14T20:38:42.813Z,21.25
2018-06-14T20:41:19.006Z,16.50
2018-06-14T20:43:51.902Z,18.00
2018-06-14T20:46:26.935Z,15.25
2018-06-14T20:49:12.205Z,19.25
2018-06-14T20:51:46.568Z,17.50
2018-06-14T20:54:22.204Z,16.00
2018-06-14T20:56:54.740Z,15.00
2018-06-14T20:59:31.141Z,15.75
2018-06-14T21:02:07.377Z,18.25
2018-06-14T21:04:47.723Z,19.75
2018-06-14T21:07:30.123Z,19.25
2018-06-14T21:10:06.781Z,22.00
2018-06-14T21:12:41.351Z,24.00
2018-06-14T21:15:20.443Z,26.50
2018-06-14T21:17:55.318Z,23.25
2018-06-14T21:20:30.838Z,24.25
2018-06-14T21:23:14.552Z,28.00
2018-06-14T21:25:55.590Z,24.75
2018-06-14T21:28:38.300Z,24.50
2018-06-14T21:31:17.856Z,20.00
2018-06-14T21:33:48.573Z,21.50
2018-06-14T21:36:24.104Z,21.00
2018-06-14T21:39:00.207Z,21.75
2018-06-14T21:41:38.774Z,18.25
2018-06-14T21:44:21.563Z,19.50
2018-06-14T21:46:57.801Z,24.25
2018-06-14T21:49:40.526Z,20.50
2018-06-14T21:52:19.888Z,25.00
2018-06-14T21:54:56.525Z,28.75
2018-06-14T21:57:27.564Z,23.75
2018-06-14T21:59:59.492Z,26.25
2018-06-14T22:02:33.315Z,25.25
2018-06-14T22:05:06.565Z,22.25
2018-06-14T22:07:50.219Z,21.75
2018-06-14T22:10:24.679Z,21.50
2018-06-14T22:12:55.823Z,24.25
2018-06-14T22:15:35.510Z,24.25
2018-06-14T22:18:17.021Z,28.25
2018-06-14T22:20:49.804Z,20.50
2018-06-14T22:23:28.308Z,19.00
2018-06-14T22:26:01.860Z,21.75
2018-06-14T22:28:34.060Z,26.75
2018-06-14T22:31:09.461Z,24.50
2018-06-14T22:33:51.476Z,22.00
2018-06-14T22:36:24.570Z,24.50
2018-06-14T22:41:37.569Z,19.00
2018-06-14T22:44:08.751Z,22.00
2018-06-14T22:46:41.642Z,21.25
2018-06-14T22:49:13.396Z,15.25
2018-06-14T22:52:04.526Z,17.25
2018-06-14T22:54:34.891Z,21.25
2018-06-14T22:57:07.471Z,19.00
2018-06-14T22:59:38.452Z,21.00
2018-06-14T23:02:10.234Z,20.75
2018-06-14T23:04:46.572Z,21.75
2018-06-14T23:07:20.698Z,20.50
2018-06-14T23:11:02.390Z,19.50
2018-06-14T23:13:49.278Z,19.00
2018-06-14T23:16:31.184Z,21.00
2018-06-14T23:21:45.205Z,20.50
2018-06-14T23:24:15.432Z,23.25
2018-06-14T23:26:47.395Z,20.50
2018-06-14T23:29:21.111Z,20.50
2018-06-14T23:31:54.369Z,21.75
2018-06-14T23:34:26.670Z,23.25
2018-06-14T23:36:57.671Z,22.50
2018-06-14T23:39:28.034Z,27.25
2018-06-14T23:41:58.874Z,23.25
2018-06-14T23:44:29.320Z,25.50
2018-06-14T23:47:00.858Z,22.50
2018-06-14T23:49:31.534Z,21.00
2018-06-14T23:52:01.669Z,19.50
2018-06-14T23:54:41.839Z,21.50
2018-06-14T23:57:15.192Z,24.00
2018-06-14T23:59:47.714Z,26.00
